Time;durP1;ratioP1;P1;durP2;ratioP2;P2;SDS_P1;SDS_P2;PMS_P1;PMS_P2;Temp;Humidity;BMP_temperature;BMP_pressure;BME280_temperature;BME280_humidity;BME280_pressure;Samples;Min_cycle;Max_cycle;Signal;HPM_P1;HPM_P2
2023/09/18 00:04:20;;;;;;;1.35;0.88;;;;;;;20.11;100.00;97984.78;15260153;19;20019;-49
2023/09/18 00:09:44;;;;;;;2.15;0.77;;;;;;;20.00;100.00;97989.16;15262461;19;20045;-48
2023/09/18 00:15:11;;;;;;;1.02;0.90;;;;;;;19.92;100.00;97989.50;15280921;19;20015;-47
2023/09/18 00:20:38;;;;;;;0.80;0.80;;;;;;;19.86;100.00;97976.75;15279118;19;20036;-51
2023/09/18 00:26:05;;;;;;;1.35;0.70;;;;;;;19.83;100.00;97977.16;15280621;19;20011;-50
2023/09/18 00:31:34;;;;;;;1.42;0.80;;;;;;;19.77;100.00;97964.44;15272499;19;20535;-47
2023/09/18 00:37:02;;;;;;;0.93;0.82;;;;;;;19.69;100.00;97950.06;15271198;19;20017;-48
2023/09/18 00:42:34;;;;;;;0.90;0.73;;;;;;;19.63;100.00;97939.22;15276800;19;20388;-48
2023/09/18 00:47:59;;;;;;;1.30;0.80;;;;;;;19.58;100.00;97926.22;15275992;19;20082;-48
2023/09/18 00:53:31;;;;;;;2.03;0.77;;;;;;;19.59;100.00;97921.59;15279073;19;20018;-50
2023/09/18 00:58:56;;;;;;;0.82;0.80;;;;;;;19.60;100.00;97924.09;15273534;19;20066;-47
2023/09/18 01:04:21;;;;;;;1.88;0.75;;;;;;;19.60;100.00;97917.81;15273829;19;20022;-48
2023/09/18 01:09:50;;;;;;;2.85;0.80;;;;;;;19.61;100.00;97898.44;15266432;19;20031;-47
2023/09/18 01:15:21;;;;;;;0.70;0.70;;;;;;;19.60;100.00;97896.78;15276771;19;20015;-48
2023/09/18 01:20:46;;;;;;;0.90;0.80;;;;;;;19.59;100.00;97888.81;15277619;19;20018;-46
2023/09/18 01:26:14;;;;;;;0.70;0.70;;;;;;;19.56;100.00;97893.69;15272414;19;20014;-48
2023/09/18 01:31:39;;;;;;;0.57;0.57;;;;;;;19.56;100.00;97893.69;15273391;19;20024;-48
2023/09/18 01:37:07;;;;;;;0.60;0.60;;;;;;;19.56;100.00;97890.13;15270109;19;20323;-47
2023/09/18 01:42:36;;;;;;;1.95;0.70;;;;;;;19.55;100.00;97866.59;15265168;19;20018;-49
2023/09/18 01:48:00;;;;;;;0.73;0.70;;;;;;;19.50;100.00;97848.19;15272162;19;20011;-46
2023/09/18 01:53:26;;;;;;;1.02;0.80;;;;;;;19.50;100.00;97842.72;15273976;19;20010;-48
2023/09/18 01:58:53;;;;;;;1.08;0.70;;;;;;;19.47;100.00;97843.16;15270731;19;20105;-48
2023/09/18 02:04:19;;;;;;;0.88;0.80;;;;;;;19.47;100.00;97839.59;15271413;19;20046;-47
2023/09/18 02:10:05;;;;;;;1.38;0.80;;;;;;;19.46;100.00;97835.22;15262773;19;20019;-46
2023/09/18 02:15:35;;;;;;;0.80;0.80;;;;;;;19.44;100.00;97829.97;15266003;19;20014;-47
2023/09/18 02:20:59;;;;;;;0.65;0.60;;;;;;;19.39;100.00;97830.69;15273325;19;20010;-48
2023/09/18 02:26:26;;;;;;;2.35;0.80;;;;;;;19.36;100.00;97812.03;15266987;19;20014;-47
2023/09/18 02:31:54;;;;;;;1.20;0.95;;;;;;;19.34;100.00;97816.06;15270537;19;20021;-49
2023/09/18 02:37:19;;;;;;;2.35;0.80;;;;;;;19.33;100.00;97817.13;15268914;19;20021;-48
2023/09/18 02:42:43;;;;;;;2.15;0.70;;;;;;;19.30;100.00;97825.78;15264909;19;20102;-47
2023/09/18 02:48:11;;;;;;;2.67;0.80;;;;;;;19.27;100.00;97816.16;15262410;19;20741;-46
2023/09/18 02:53:37;;;;;;;0.85;0.80;;;;;;;19.26;100.00;97811.75;15262142;19;20486;-46
2023/09/18 02:59:02;;;;;;;0.93;0.65;;;;;;;19.23;100.00;97804.88;15265891;19;20022;-53
2023/09/18 03:04:29;;;;;;;1.00;0.80;;;;;;;19.20;100.00;97813.50;15269217;19;20018;-53
2023/09/18 03:09:54;;;;;;;0.80;0.80;;;;;;;19.14;100.00;97813.59;15258087;19;20026;-50
2023/09/18 03:15:19;;;;;;;1.10;0.85;;;;;;;19.04;100.00;97815.00;15261503;19;20025;-52
2023/09/18 03:20:48;;;;;;;1.73;0.80;;;;;;;18.95;100.00;97800.03;15260263;19;20026;-50
2023/09/18 03:26:12;;;;;;;1.15;0.82;;;;;;;18.85;100.00;97794.25;15264403;19;20037;-53
2023/09/18 03:31:37;;;;;;;1.85;0.80;;;;;;;18.76;100.00;97782.81;15267115;19;20479;-55
2023/09/18 03:37:06;;;;;;;0.70;0.70;;;;;;;18.68;100.00;97767.59;15263253;19;20042;-52
2023/09/18 03:42:31;;;;;;;0.70;0.70;;;;;;;18.63;100.00;97756.53;15264651;19;20029;-51
2023/09/18 03:47:55;;;;;;;0.80;0.80;;;;;;;18.56;100.00;97740.25;15257703;19;20022;-52
2023/09/18 03:53:23;;;;;;;0.70;0.70;;;;;;;18.54;100.00;97733.34;15252379;19;20010;-51
2023/09/18 03:58:49;;;;;;;1.27;0.70;;;;;;;18.50;100.00;97723.97;15264441;19;20038;-53
2023/09/18 04:04:14;;;;;;;0.77;0.77;;;;;;;18.46;100.00;97723.63;15266965;19;20022;-54
2023/09/18 04:09:42;;;;;;;1.80;1.00;;;;;;;18.42;100.00;97723.22;15262833;19;20077;-53
2023/09/18 04:15:07;;;;;;;1.00;0.90;;;;;;;18.37;100.00;97724.97;15266125;19;20668;-51
2023/09/18 04:20:31;;;;;;;0.98;0.80;;;;;;;18.33;100.00;97713.69;15260922;19;20032;-52
2023/09/18 04:26:01;;;;;;;1.15;0.80;;;;;;;18.29;100.00;97702.41;15258964;19;20649;-51
2023/09/18 04:31:27;;;;;;;0.98;0.80;;;;;;;18.24;100.00;97710.44;15260105;19;20018;-53
2023/09/18 04:36:52;;;;;;;1.50;0.90;;;;;;;18.21;100.00;97705.47;15255849;19;20491;-54
2023/09/18 04:42:20;;;;;;;3.83;0.98;;;;;;;18.16;100.00;97689.78;15264072;19;20022;-52
2023/09/18 04:47:45;;;;;;;2.10;0.77;;;;;;;18.12;100.00;97699.47;15260369;19;20014;-53
2023/09/18 04:53:10;;;;;;;2.15;1.00;;;;;;;18.07;100.00;97687.59;15254108;19;20023;-54
2023/09/18 04:58:38;;;;;;;1.17;0.90;;;;;;;18.00;100.00;97679.50;15263908;19;20082;-51
2023/09/18 05:04:04;;;;;;;1.73;1.00;;;;;;;17.92;100.00;97675.16;15276978;19;20382;-52
2023/09/18 05:09:28;;;;;;;0.93;0.90;;;;;;;17.89;100.00;97681.03;15273041;19;20083;-51
2023/09/18 05:14:58;;;;;;;0.80;0.80;;;;;;;17.84;100.00;97684.44;15277875;19;20021;-54
2023/09/18 05:20:24;;;;;;;2.03;0.90;;;;;;;17.80;100.00;97677.81;15276347;19;20014;-51
2023/09/18 05:25:48;;;;;;;0.77;0.77;;;;;;;17.80;100.00;97663.34;15268319;19;20367;-52
2023/09/18 05:31:16;;;;;;;0.88;0.80;;;;;;;17.83;100.00;97662.88;15275060;19;20346;-51
2023/09/18 05:36:42;;;;;;;1.27;0.90;;;;;;;17.85;100.00;97661.59;15275026;19;20039;-51
2023/09/18 05:42:14;;;;;;;1.60;0.60;;;;;;;17.90;100.00;97644.56;15275019;19;20023;-53
2023/09/18 05:47:42;;;;;;;0.98;0.90;;;;;;;17.95;100.00;97657.50;15273006;19;20426;-52
2023/09/18 05:53:09;;;;;;;1.33;0.80;;;;;;;18.04;100.00;97664.38;15271629;19;20017;-51
2023/09/18 05:58:35;;;;;;;1.33;0.70;;;;;;;18.15;100.00;97638.22;15264305;19;20006;-53
2023/09/18 06:04:03;;;;;;;1.00;0.88;;;;;;;18.24;100.00;97614.19;15272956;19;20022;-52
2023/09/18 06:09:28;;;;;;;0.75;0.70;;;;;;;18.36;100.00;97596.00;15269849;19;20018;-51
2023/09/18 06:14:53;;;;;;;0.77;0.70;;;;;;;18.51;100.00;97605.66;15274445;19;20788;-52
2023/09/18 06:20:21;;;;;;;1.13;0.80;;;;;;;18.69;100.00;97607.47;15273343;19;20018;-51
2023/09/18 06:25:46;;;;;;;0.80;0.68;;;;;;;18.83;100.00;97613.53;15269583;19;20029;-52
2023/09/18 06:31:11;;;;;;;2.42;0.80;;;;;;;19.00;100.00;97595.41;15263991;19;20474;-51
2023/09/18 06:36:39;;;;;;;0.77;0.77;;;;;;;19.12;100.00;97595.44;15268192;19;20038;-52
2023/09/18 06:42:03;;;;;;;0.60;0.60;;;;;;;19.27;100.00;97619.53;15270684;19;20038;-51
2023/09/18 06:47:28;;;;;;;0.80;0.70;;;;;;;19.41;100.00;97614.66;15268654;19;20069;-52
2023/09/18 06:52:55;;;;;;;1.08;0.70;;;;;;;19.52;100.00;97607.53;15248338;19;20020;-52
2023/09/18 06:58:20;;;;;;;4.10;0.80;;;;;;;19.60;100.00;97600.88;15265697;19;20025;-51
2023/09/18 07:03:44;;;;;;;2.05;0.70;;;;;;;19.66;100.00;97588.97;15264036;19;20038;-54
2023/09/18 07:09:12;;;;;;;0.60;0.60;;;;;;;19.72;100.00;97593.47;15266855;19;20033;-52
2023/09/18 07:14:38;;;;;;;1.55;0.70;;;;;;;19.78;100.00;97602.63;15268500;19;20049;-54
2023/09/18 07:20:09;;;;;;;0.80;0.73;;;;;;;19.83;100.00;97599.97;15263501;19;20074;-51
2023/09/18 07:25:43;;;;;;;0.85;0.70;;;;;;;19.89;100.00;97590.84;15270034;19;20081;-55
2023/09/18 07:31:15;;;;;;;2.45;0.70;;;;;;;20.01;100.00;97597.13;15264842;19;20021;-55
2023/09/18 07:36:41;;;;;;;0.82;0.82;;;;;;;20.15;100.00;97603.13;15260274;19;20015;-54
2023/09/18 07:42:16;;;;;;;1.40;0.70;;;;;;;20.31;100.00;97596.03;15268606;19;20029;-54
2023/09/18 07:47:41;;;;;;;2.08;0.80;;;;;;;20.51;100.00;97600.25;15266861;19;20020;-52
2023/09/18 07:53:06;;;;;;;1.15;0.80;;;;;;;20.73;100.00;97596.78;15266868;19;20094;-54
2023/09/18 07:58:41;;;;;;;0.98;0.90;;;;;;;20.93;100.00;97583.47;15265861;19;20025;-54
2023/09/18 08:04:07;;;;;;;0.95;0.70;;;;;;;21.08;100.00;97598.47;15263089;19;20019;-53
2023/09/18 08:09:31;;;;;;;1.42;0.82;;;;;;;21.17;100.00;97602.44;15255127;19;20021;-52
2023/09/18 08:14:59;;;;;;;1.33;0.80;;;;;;;21.27;100.00;97589.97;15265829;19;20271;-54
2023/09/18 08:20:26;;;;;;;0.90;0.60;;;;;;;21.35;100.00;97606.81;15266543;19;20375;-55
2023/09/18 08:25:55;;;;;;;2.83;0.90;;;;;;;21.46;100.00;97588.59;15266550;19;20089;-53
2023/09/18 08:31:24;;;;;;;1.88;0.80;;;;;;;21.57;100.00;97561.38;15264159;19;20417;-54
2023/09/18 08:36:48;;;;;;;1.10;0.73;;;;;;;21.69;100.00;97571.16;15272226;19;20018;-54
2023/09/18 08:42:16;;;;;;;1.98;0.80;;;;;;;21.83;100.00;97577.06;15273190;19;20404;-52
2023/09/18 08:47:45;;;;;;;2.60;0.85;;;;;;;21.97;100.00;97606.84;15276970;19;20019;-54
2023/09/18 08:53:11;;;;;;;2.00;0.85;;;;;;;22.13;100.00;97605.09;15278980;19;20014;-55
2023/09/18 08:58:39;;;;;;;2.28;0.80;;;;;;;22.23;100.00;97604.41;15276909;19;20014;-52
2023/09/18 09:04:07;;;;;;;5.75;0.80;;;;;;;22.27;100.00;97619.28;15279122;19;20021;-53
2023/09/18 09:09:33;;;;;;;3.55;0.80;;;;;;;22.24;100.00;97626.09;15265275;19;20396;-54
2023/09/18 09:15:12;;;;;;;2.60;0.90;;;;;;;22.19;100.00;97616.97;15268496;19;20741;-54
2023/09/18 09:20:39;;;;;;;3.47;1.08;;;;;;;22.22;100.00;97608.22;15277815;19;20144;-57
2023/09/18 09:26:21;;;;;;;3.38;0.80;;;;;;;22.28;100.00;97608.03;15276188;19;20081;-55
2023/09/18 09:31:46;;;;;;;1.20;0.75;;;;;;;22.40;100.00;97596.09;15277691;19;20018;-52
2023/09/18 09:37:13;;;;;;;1.90;0.75;;;;;;;22.52;100.00;97602.28;15273382;19;20022;-54
2023/09/18 09:42:48;;;;;;;2.58;0.90;;;;;;;22.66;100.00;97596.38;15268745;19;20829;-53
2023/09/18 09:48:14;;;;;;;2.22;1.00;;;;;;;22.75;100.00;97609.38;15267939;19;20014;-53
2023/09/18 09:53:58;;;;;;;2.90;0.90;;;;;;;22.80;100.00;97616.81;15272648;19;20021;-54
2023/09/18 09:59:24;;;;;;;4.90;1.20;;;;;;;22.90;100.00;97602.34;15271297;19;20380;-56
2023/09/18 10:04:50;;;;;;;3.45;1.20;;;;;;;22.90;100.00;97614.16;15275456;19;20399;-56
2023/09/18 10:10:17;;;;;;;5.65;1.20;;;;;;;22.96;100.00;97612.28;15273911;19;20097;-53
2023/09/18 10:15:46;;;;;;;8.95;1.30;;;;;;;22.94;100.00;97607.03;15262798;19;20466;-55
2023/09/18 10:21:16;;;;;;;2.33;1.20;;;;;;;22.89;100.00;97615.25;15273921;19;20022;-56
2023/09/18 10:26:50;;;;;;;6.25;1.30;;;;;;;22.92;100.00;97597.41;15271927;19;20015;-52
2023/09/18 10:32:15;;;;;;;3.95;1.23;;;;;;;22.93;100.00;97599.06;15274028;19;20032;-53
2023/09/18 10:37:42;;;;;;;2.83;1.30;;;;;;;22.99;100.00;97598.00;15270048;19;20023;-52
2023/09/18 10:43:17;;;;;;;3.88;1.20;;;;;;;23.06;100.00;97595.88;15272401;19;20035;-53
2023/09/18 10:48:44;;;;;;;2.63;1.15;;;;;;;23.16;100.00;97608.88;15256811;19;20014;-53
2023/09/18 10:54:10;;;;;;;3.90;1.13;;;;;;;23.18;100.00;97597.63;15271152;19;20077;-52
2023/09/18 10:59:46;;;;;;;4.38;1.30;;;;;;;23.16;100.00;97592.41;15267471;19;20058;-54
2023/09/18 11:05:12;;;;;;;6.50;1.20;;;;;;;23.14;100.00;97599.22;15267017;19;20018;-52
2023/09/18 11:10:38;;;;;;;3.03;1.48;;;;;;;23.14;100.00;97593.72;15269218;19;20490;-53
2023/09/18 11:16:09;;;;;;;5.68;1.15;;;;;;;23.12;100.00;97599.50;15264036;19;20022;-54
2023/09/18 11:21:38;;;;;;;6.38;1.50;;;;;;;23.07;100.00;97605.78;15260892;19;20023;-53
2023/09/18 11:27:03;;;;;;;3.78;1.30;;;;;;;22.94;100.00;97623.50;15266102;19;20022;-52
2023/09/18 11:32:43;;;;;;;3.08;1.20;;;;;;;22.85;100.00;97630.59;15267338;19;20704;-51
2023/09/18 11:38:16;;;;;;;2.53;1.08;;;;;;;22.80;100.00;97643.44;15264765;19;20014;-53
2023/09/18 11:43:43;;;;;;;2.60;1.08;;;;;;;22.75;100.00;97666.19;15265332;19;20033;-56
2023/09/18 11:49:12;;;;;;;4.30;1.27;;;;;;;22.69;100.00;97670.78;15252845;19;20021;-52
2023/09/18 11:54:38;;;;;;;2.80;1.10;;;;;;;22.58;100.00;97674.53;15253872;19;20021;-53
2023/09/18 12:00:11;;;;;;;4.80;1.40;;;;;;;22.44;100.00;97688.63;15259099;19;20033;-53
2023/09/18 12:05:39;;;;;;;3.95;1.00;;;;;;;22.29;100.00;97689.25;15263207;19;20036;-53
2023/09/18 12:11:05;;;;;;;6.13;1.60;;;;;;;22.19;100.00;97702.00;15280904;19;20024;-51
2023/09/18 12:16:30;;;;;;;3.33;1.25;;;;;;;22.12;100.00;97692.06;15276122;19;20014;-51
2023/09/18 12:21:58;;;;;;;2.95;1.35;;;;;;;22.10;100.00;97693.41;15273541;19;20050;-51
2023/09/18 12:27:26;;;;;;;2.70;1.30;;;;;;;22.13;100.00;97671.78;15269979;19;20018;-54
2023/09/18 12:32:51;;;;;;;3.30;1.13;;;;;;;22.22;100.00;97674.06;15278338;19;20039;-54
2023/09/18 12:38:25;;;;;;;1.98;1.10;;;;;;;22.26;100.00;97681.53;15272047;19;20105;-53
2023/09/18 12:43:51;;;;;;;4.18;1.30;;;;;;;22.21;100.00;97689.72;15275764;19;20021;-51
2023/09/18 12:49:21;;;;;;;3.47;1.40;;;;;;;22.17;100.00;97697.59;15272565;19;20026;-51
2023/09/18 12:54:54;;;;;;;3.53;1.50;;;;;;;22.06;100.00;97701.31;15270441;19;20014;-52
2023/09/18 13:00:22;;;;;;;2.17;1.17;;;;;;;21.96;100.00;97709.41;15273001;19;20010;-55
2023/09/18 13:05:49;;;;;;;3.25;1.42;;;;;;;21.84;100.00;97704.84;15277091;19;20020;-53
2023/09/18 13:11:16;;;;;;;4.68;1.30;;;;;;;21.76;100.00;97710.78;15278050;19;20038;-51
2023/09/18 13:16:42;;;;;;;3.53;1.38;;;;;;;21.61;100.00;97710.53;15272919;19;20058;-51
2023/09/18 13:22:07;;;;;;;2.53;1.02;;;;;;;21.43;100.00;97717.91;15277496;19;20022;-52
2023/09/18 13:27:35;;;;;;;3.78;1.10;;;;;;;21.14;100.00;97742.63;15269203;19;20013;-51
2023/09/18 13:33:05;;;;;;;2.88;1.05;;;;;;;20.74;100.00;97748.97;15262637;19;20024;-53
2023/09/18 13:38:31;;;;;;;2.92;1.10;;;;;;;20.49;100.00;97766.56;15270007;19;20010;-53
2023/09/18 13:43:58;;;;;;;3.55;1.20;;;;;;;20.23;100.00;97801.56;15270406;19;20029;-53
2023/09/18 13:49:25;;;;;;;3.13;1.20;;;;;;;19.97;100.00;97831.03;15270085;19;20015;-49
2023/09/18 13:54:51;;;;;;;3.35;1.20;;;;;;;19.78;100.00;97835.75;15272425;19;20029;-50
2023/09/18 14:00:20;;;;;;;3.38;1.10;;;;;;;19.68;100.00;97847.28;15268375;19;20014;-49
2023/09/18 14:05:46;;;;;;;2.80;1.00;;;;;;;19.63;100.00;97824.44;15265521;19;20035;-49
2023/09/18 14:11:13;;;;;;;2.17;1.00;;;;;;;19.66;100.00;97821.22;15274037;19;20074;-55
2023/09/18 14:16:40;;;;;;;2.90;1.10;;;;;;;19.74;100.00;97814.59;15270189;19;20014;-51
2023/09/18 14:22:07;;;;;;;2.35;1.13;;;;;;;19.75;100.00;97788.94;15274704;19;20122;-51
2023/09/18 14:27:32;;;;;;;2.85;1.20;;;;;;;19.78;100.00;97819.34;15270805;19;20029;-48
2023/09/18 14:33:01;;;;;;;2.17;0.90;;;;;;;19.77;100.00;97789.53;15264502;19;20349;-49
2023/09/18 14:38:26;;;;;;;2.65;1.00;;;;;;;19.80;100.00;97770.75;15262115;19;20750;-47
2023/09/18 14:43:51;;;;;;;2.35;1.13;;;;;;;19.85;100.00;97772.75;15269104;19;20493;-49
2023/09/18 14:49:19;;;;;;;1.67;1.00;;;;;;;19.86;100.00;97772.59;15268103;19;20104;-46
2023/09/18 14:54:44;;;;;;;1.33;0.70;;;;;;;19.85;100.00;97739.97;15270854;19;20101;-49
2023/09/18 15:00:15;;;;;;;2.38;0.90;;;;;;;19.86;100.00;97738.94;15261926;19;20351;-48
2023/09/18 15:05:51;;;;;;;1.55;0.80;;;;;;;19.85;100.00;97759.09;15261920;19;20463;-50
2023/09/18 15:11:17;;;;;;;3.90;0.80;;;;;;;19.83;100.00;97758.50;15268332;19;20017;-46
2023/09/18 15:16:42;;;;;;;1.50;0.70;;;;;;;19.82;100.00;97773.22;15265946;19;20014;-49
2023/09/18 15:22:10;;;;;;;2.17;0.80;;;;;;;19.76;100.00;97775.00;15267163;19;20040;-49
2023/09/18 15:27:35;;;;;;;2.33;0.80;;;;;;;19.75;100.00;97778.00;15264733;19;20078;-72
2023/09/18 15:33:01;;;;;;;1.95;0.90;;;;;;;19.75;100.00;97772.53;15266497;19;20480;-53
2023/09/18 15:38:29;;;;;;;1.60;0.73;;;;;;;19.78;100.00;97763.88;15249796;19;20272;-56
2023/09/18 15:44:01;;;;;;;1.40;0.60;;;;;;;19.73;100.00;97742.72;15260445;19;20014;-56
2023/09/18 15:49:26;;;;;;;1.83;0.73;;;;;;;19.67;100.00;97730.00;15263869;19;20451;-49
2023/09/18 15:54:54;;;;;;;1.13;0.60;;;;;;;19.66;100.00;97715.50;15265769;19;20029;-48
2023/09/18 16:00:20;;;;;;;1.45;0.70;;;;;;;19.58;100.00;97717.75;15265277;19;20428;-49
2023/09/18 16:05:51;;;;;;;1.45;0.57;;;;;;;19.49;100.00;97701.72;15265394;19;20029;-50
2023/09/18 16:11:19;;;;;;;1.73;0.60;;;;;;;19.40;100.00;97684.84;15251999;19;20023;-51
2023/09/18 16:16:45;;;;;;;2.63;0.82;;;;;;;19.35;100.00;97692.91;15261320;19;20585;-51
2023/09/18 16:22:10;;;;;;;2.15;0.60;;;;;;;19.29;100.00;97696.59;15264579;19;20038;-51
2023/09/18 16:27:47;;;;;;;0.85;0.50;;;;;;;19.23;100.00;97694.78;15261477;19;20112;-52
2023/09/18 16:33:13;;;;;;;1.35;0.70;;;;;;;19.17;100.00;97682.91;15263749;19;20025;-54
2023/09/18 16:38:41;;;;;;;1.02;0.70;;;;;;;19.14;100.00;97680.69;15261034;19;20014;-48
2023/09/18 16:44:15;;;;;;;2.10;0.63;;;;;;;19.09;100.00;97665.00;15246253;19;20034;-50
2023/09/18 16:49:42;;;;;;;2.15;0.70;;;;;;;19.09;100.00;97664.16;15255960;19;20888;-51
2023/09/18 16:55:06;;;;;;;2.28;0.73;;;;;;;19.15;100.00;97659.66;15262344;19;20022;-51
2023/09/18 17:00:35;;;;;;;2.25;0.80;;;;;;;19.25;100.00;97674.41;15279722;19;20389;-49
2023/09/18 17:05:59;;;;;;;1.63;0.75;;;;;;;19.32;100.00;97663.38;15281503;19;20011;-50
2023/09/18 17:11:24;;;;;;;2.63;0.90;;;;;;;19.27;100.00;97668.69;15278945;19;20058;-56
2023/09/18 17:16:51;;;;;;;2.25;0.75;;;;;;;19.20;100.00;97676.16;15265407;19;20022;-49
2023/09/18 17:22:16;;;;;;;1.42;0.60;;;;;;;19.06;100.00;97670.94;15278510;19;20904;-51
2023/09/18 17:27:41;;;;;;;2.38;0.80;;;;;;;18.96;100.00;97662.47;15277244;19;20539;-50
2023/09/18 17:33:09;;;;;;;3.28;0.80;;;;;;;18.81;100.00;97676.53;15276767;19;20025;-51
2023/09/18 17:38:35;;;;;;;2.15;0.80;;;;;;;18.67;100.00;97662.25;15273460;19;20082;-50
2023/09/18 17:44:02;;;;;;;1.40;0.68;;;;;;;18.54;100.00;97668.75;15273476;19;20018;-46
2023/09/18 17:49:30;;;;;;;1.83;0.70;;;;;;;18.46;100.00;97671.81;15261184;19;20366;-51
2023/09/18 17:54:57;;;;;;;2.30;0.70;;;;;;;18.38;100.00;97678.41;15273340;19;20022;-55
2023/09/18 18:00:23;;;;;;;1.83;0.80;;;;;;;18.32;100.00;97677.44;15274819;19;20026;-52
2023/09/18 18:05:51;;;;;;;1.50;0.77;;;;;;;18.24;100.00;97687.81;15270246;19;20073;-51
2023/09/18 18:11:15;;;;;;;1.55;0.60;;;;;;;18.18;100.00;97687.66;15272771;19;20022;-54
2023/09/18 18:16:42;;;;;;;1.60;0.70;;;;;;;18.14;100.00;97705.53;15266093;19;20019;-49
2023/09/18 18:22:09;;;;;;;2.20;0.80;;;;;;;18.09;100.00;97713.56;15264957;19;20671;-46
2023/09/18 18:27:35;;;;;;;1.67;0.60;;;;;;;18.04;100.00;97727.06;15269831;19;20349;-47
2023/09/18 18:32:59;;;;;;;1.95;0.70;;;;;;;17.98;100.00;97719.75;15272298;19;20037;-49
2023/09/18 18:38:35;;;;;;;3.47;0.70;;;;;;;17.93;100.00;97705.97;15267601;19;20019;-49
2023/09/18 18:44:05;;;;;;;1.67;0.65;;;;;;;17.90;100.00;97714.59;15268891;19;20022;-46
2023/09/18 18:49:29;;;;;;;1.23;0.70;;;;;;;17.86;100.00;97711.50;15259757;19;20411;-49
2023/09/18 18:54:57;;;;;;;2.03;0.80;;;;;;;17.80;100.00;97707.78;15232238;19;20018;-49
2023/09/18 19:00:22;;;;;;;2.92;0.70;;;;;;;17.83;100.00;97714.66;15269039;19;20042;-49
2023/09/18 19:05:47;;;;;;;1.65;0.70;;;;;;;17.81;100.00;97712.16;15268754;19;20022;-53
2023/09/18 19:11:15;;;;;;;2.53;0.70;;;;;;;17.81;100.00;97701.28;15238465;19;20483;-46
2023/09/18 19:16:41;;;;;;;1.83;0.60;;;;;;;17.77;100.00;97693.75;15268632;19;20041;-48
2023/09/18 19:22:07;;;;;;;1.98;0.80;;;;;;;17.72;100.00;97686.25;15264748;19;20018;-47
2023/09/18 19:27:39;;;;;;;1.23;0.63;;;;;;;17.68;100.00;97691.31;15259432;19;20028;-46
2023/09/18 19:33:04;;;;;;;1.67;0.80;;;;;;;17.64;100.00;97690.09;15265766;19;20022;-46
2023/09/18 19:38:29;;;;;;;0.82;0.60;;;;;;;17.58;100.00;97693.75;15264295;19;20024;-53
2023/09/18 19:43:56;;;;;;;1.90;0.57;;;;;;;17.54;100.00;97701.53;15264580;19;20037;-47
2023/09/18 19:49:22;;;;;;;2.47;0.60;;;;;;;17.48;100.00;97694.25;15265742;19;20010;-49
2023/09/18 19:54:46;;;;;;;3.33;0.70;;;;;;;17.45;100.00;97693.88;15262771;19;20038;-46
2023/09/18 20:00:15;;;;;;;1.30;0.50;;;;;;;17.40;100.00;97687.19;15253255;19;20257;-48
2023/09/18 20:05:41;;;;;;;1.23;0.55;;;;;;;17.35;100.00;97691.63;15267060;19;20375;-47
2023/09/18 20:11:07;;;;;;;1.13;0.68;;;;;;;17.34;100.00;97676.38;15264996;19;20014;-46
2023/09/18 20:16:35;;;;;;;1.63;0.73;;;;;;;17.32;100.00;97667.59;15264863;19;20021;-52
2023/09/18 20:22:07;;;;;;;1.67;0.60;;;;;;;17.25;100.00;97665.75;15260707;19;20506;-47
2023/09/18 20:27:35;;;;;;;2.22;0.70;;;;;;;17.23;100.00;97676.03;15258701;19;20064;-52
2023/09/18 20:33:03;;;;;;;1.05;0.60;;;;;;;17.19;100.00;97672.09;15274509;19;20724;-48
2023/09/18 20:38:28;;;;;;;1.65;0.65;;;;;;;17.13;100.00;97675.69;15276903;19;20713;-47
2023/09/18 20:44:00;;;;;;;1.45;0.60;;;;;;;17.12;100.00;97686.81;15278406;19;20501;-50
2023/09/18 20:49:28;;;;;;;0.70;0.50;;;;;;;17.09;100.00;97693.56;15275731;19;20016;-45
2023/09/18 20:54:53;;;;;;;1.00;0.60;;;;;;;17.07;100.00;97699.19;15279253;19;20019;-50
2023/09/18 21:00:19;;;;;;;0.75;0.65;;;;;;;17.06;100.00;97699.44;15274251;19;20019;-48
2023/09/18 21:05:46;;;;;;;1.60;0.60;;;;;;;17.04;100.00;97699.66;15277114;19;20474;-47
2023/09/18 21:11:13;;;;;;;1.42;0.60;;;;;;;17.01;100.00;97701.97;15280438;19;20426;-51
2023/09/18 21:16:37;;;;;;;1.35;0.50;;;;;;;17.00;100.00;97700.28;15275453;19;20014;-44
2023/09/18 21:22:05;;;;;;;1.77;0.68;;;;;;;16.96;100.00;97705.34;15277776;19;20011;-48
2023/09/18 21:27:30;;;;;;;1.33;0.70;;;;;;;16.98;100.00;97691.53;15274902;19;20014;-51
2023/09/18 21:32:55;;;;;;;1.13;0.50;;;;;;;16.97;100.00;97689.88;15268329;19;20017;-50
2023/09/18 21:38:22;;;;;;;1.58;0.63;;;;;;;16.94;100.00;97702.00;15273678;19;20014;-45
2023/09/18 21:43:47;;;;;;;2.10;0.75;;;;;;;16.92;100.00;97709.56;15273058;19;20824;-45
2023/09/18 21:49:12;;;;;;;1.33;0.60;;;;;;;16.91;100.00;97697.00;15271538;19;20022;-46
2023/09/18 21:54:39;;;;;;;2.55;0.85;;;;;;;16.91;100.00;97695.09;15275824;19;20015;-45
2023/09/18 22:00:18;;;;;;;1.25;0.55;;;;;;;16.95;100.00;97692.78;15270666;19;20449;-50
2023/09/18 22:05:40;;;;;;;1.85;0.70;;;;;;;17.01;100.00;97702.81;15264121;19;20021;-52
2023/09/18 22:11:09;;;;;;;1.65;0.70;;;;;;;17.05;100.00;97689.59;15274626;19;21644;-48
2023/09/18 22:16:36;;;;;;;4.22;0.70;;;;;;;17.09;100.00;97690.81;15271969;19;20447;-45
2023/09/18 22:22:02;;;;;;;0.88;0.65;;;;;;;17.13;100.00;97691.22;15274644;19;20010;-51
2023/09/18 22:27:29;;;;;;;4.25;0.80;;;;;;;17.18;100.00;97680.47;15271972;19;20018;-45
2023/09/18 22:32:54;;;;;;;1.08;0.60;;;;;;;17.21;100.00;97680.88;15273270;19;20006;-50
2023/09/18 22:38:27;;;;;;;1.83;0.70;;;;;;;17.25;100.00;97682.09;15260494;19;20015;-45
2023/09/18 22:44:25;;;;;;;1.27;0.70;;;;;;;17.31;100.00;97682.28;15271349;19;20025;-45
2023/09/18 22:50:19;;;;;;;1.40;0.65;;;;;;;17.32;100.00;97676.59;15268334;19;20089;-46
2023/09/18 22:55:49;;;;;;;2.65;0.60;;;;;;;17.29;100.00;97677.03;15273781;19;20015;-49
2023/09/18 23:01:17;;;;;;;1.45;0.60;;;;;;;17.23;100.00;97673.31;15274555;19;20654;-52
2023/09/18 23:06:42;;;;;;;1.45;0.70;;;;;;;17.17;100.00;97678.84;15268348;19;20017;-48
2023/09/18 23:12:10;;;;;;;1.33;0.70;;;;;;;17.12;100.00;97701.25;15262575;19;20107;-48
2023/09/18 23:17:35;;;;;;;1.65;0.70;;;;;;;17.08;100.00;97686.44;15267037;19;20014;-53
2023/09/18 23:23:15;;;;;;;1.75;0.80;;;;;;;17.04;100.00;97687.91;15270216;19;20020;-49
2023/09/18 23:28:45;;;;;;;1.25;0.80;;;;;;;17.02;100.00;97695.47;15265230;19;20081;-46
2023/09/18 23:34:11;;;;;;;1.15;0.60;;;;;;;16.97;100.00;97698.03;15268760;19;20024;-47
2023/09/18 23:39:38;;;;;;;1.60;0.80;;;;;;;16.96;100.00;97701.81;15260242;19;20081;-52
2023/09/18 23:45:14;;;;;;;0.98;0.70;;;;;;;16.89;100.00;97691.75;15260144;19;20021;-46
2023/09/18 23:50:39;;;;;;;2.45;0.90;;;;;;;16.84;100.00;97707.91;15268317;19;20006;-49
2023/09/18 23:56:06;;;;;;;2.28;0.85;;;;;;;16.81;100.00;97713.78;15266039;19;20028;-48
